sensor_id;sensor_type;location;lat;lon;timestamp;P1;durP1;ratioP1;P2;durP2;ratioP2
16977;SDS011;8605;52.548;4.918;2022-08-21T00:03:05;4.30;;;1.97;;
16977;SDS011;8605;52.548;4.918;2022-08-21T00:08:29;2.70;;;1.80;;
16977;SDS011;8605;52.548;4.918;2022-08-21T00:13:53;4.40;;;2.83;;
16977;SDS011;8605;52.548;4.918;2022-08-21T00:19:17;5.53;;;2.60;;
16977;SDS011;8605;52.548;4.918;2022-08-21T00:24:42;4.07;;;2.30;;
16977;SDS011;8605;52.548;4.918;2022-08-21T00:30:06;4.67;;;2.17;;
16977;SDS011;8605;52.548;4.918;2022-08-21T00:35:33;3.83;;;2.27;;
16977;SDS011;8605;52.548;4.918;2022-08-21T00:40:58;6.57;;;2.50;;
16977;SDS011;8605;52.548;4.918;2022-08-21T00:46:43;6.70;;;2.10;;
16977;SDS011;8605;52.548;4.918;2022-08-21T00:52:09;13.97;;;2.90;;
16977;SDS011;8605;52.548;4.918;2022-08-21T00:57:36;4.27;;;2.87;;
16977;SDS011;8605;52.548;4.918;2022-08-21T01:03:04;6.27;;;2.30;;
16977;SDS011;8605;52.548;4.918;2022-08-21T01:08:31;4.57;;;3.13;;
16977;SDS011;8605;52.548;4.918;2022-08-21T01:13:55;5.13;;;2.87;;
16977;SDS011;8605;52.548;4.918;2022-08-21T01:19:18;5.97;;;2.57;;
16977;SDS011;8605;52.548;4.918;2022-08-21T01:24:44;5.80;;;3.57;;
16977;SDS011;8605;52.548;4.918;2022-08-21T01:30:09;5.30;;;2.47;;
16977;SDS011;8605;52.548;4.918;2022-08-21T01:35:34;7.23;;;3.00;;
16977;SDS011;8605;52.548;4.918;2022-08-21T01:40:59;7.37;;;2.87;;
16977;SDS011;8605;52.548;4.918;2022-08-21T01:46:22;8.27;;;2.10;;
16977;SDS011;8605;52.548;4.918;2022-08-21T01:51:45;4.80;;;2.43;;
16977;SDS011;8605;52.548;4.918;2022-08-21T01:57:10;3.20;;;2.50;;
16977;SDS011;8605;52.548;4.918;2022-08-21T02:02:34;6.40;;;3.47;;
16977;SDS011;8605;52.548;4.918;2022-08-21T02:07:57;7.93;;;2.87;;
16977;SDS011;8605;52.548;4.918;2022-08-21T02:13:21;4.20;;;2.23;;
16977;SDS011;8605;52.548;4.918;2022-08-21T02:18:45;13.43;;;3.13;;
16977;SDS011;8605;52.548;4.918;2022-08-21T02:24:09;9.53;;;2.90;;
16977;SDS011;8605;52.548;4.918;2022-08-21T02:29:34;5.73;;;3.07;;
16977;SDS011;8605;52.548;4.918;2022-08-21T02:34:58;4.70;;;2.53;;
16977;SDS011;8605;52.548;4.918;2022-08-21T02:40:22;7.57;;;2.67;;
16977;SDS011;8605;52.548;4.918;2022-08-21T02:45:49;7.03;;;3.53;;
16977;SDS011;8605;52.548;4.918;2022-08-21T02:51:13;6.40;;;3.33;;
16977;SDS011;8605;52.548;4.918;2022-08-21T02:56:38;6.50;;;3.10;;
16977;SDS011;8605;52.548;4.918;2022-08-21T03:02:03;3.90;;;2.47;;
16977;SDS011;8605;52.548;4.918;2022-08-21T03:07:26;5.33;;;2.63;;
16977;SDS011;8605;52.548;4.918;2022-08-21T03:12:49;6.10;;;2.80;;
16977;SDS011;8605;52.548;4.918;2022-08-21T03:18:15;5.37;;;2.80;;
16977;SDS011;8605;52.548;4.918;2022-08-21T03:23:38;5.77;;;3.03;;
16977;SDS011;8605;52.548;4.918;2022-08-21T03:29:04;5.80;;;3.33;;
16977;SDS011;8605;52.548;4.918;2022-08-21T03:34:30;7.17;;;3.17;;
16977;SDS011;8605;52.548;4.918;2022-08-21T03:39:53;5.70;;;2.77;;
16977;SDS011;8605;52.548;4.918;2022-08-21T03:45:17;6.47;;;3.10;;
16977;SDS011;8605;52.548;4.918;2022-08-21T03:50:42;6.57;;;2.77;;
16977;SDS011;8605;52.548;4.918;2022-08-21T03:56:08;6.70;;;3.00;;
16977;SDS011;8605;52.548;4.918;2022-08-21T04:01:32;10.33;;;2.97;;
16977;SDS011;8605;52.548;4.918;2022-08-21T04:06:56;7.17;;;2.57;;
16977;SDS011;8605;52.548;4.918;2022-08-21T04:12:20;5.07;;;2.60;;
16977;SDS011;8605;52.548;4.918;2022-08-21T04:17:43;11.77;;;2.87;;
16977;SDS011;8605;52.548;4.918;2022-08-21T04:23:08;8.07;;;3.50;;
16977;SDS011;8605;52.548;4.918;2022-08-21T04:28:31;8.07;;;2.70;;
16977;SDS011;8605;52.548;4.918;2022-08-21T04:33:54;6.87;;;4.87;;
16977;SDS011;8605;52.548;4.918;2022-08-21T04:39:19;8.10;;;2.67;;
16977;SDS011;8605;52.548;4.918;2022-08-21T04:44:50;5.43;;;2.83;;
16977;SDS011;8605;52.548;4.918;2022-08-21T04:50:14;7.80;;;3.30;;
16977;SDS011;8605;52.548;4.918;2022-08-21T04:55:48;11.37;;;3.93;;
16977;SDS011;8605;52.548;4.918;2022-08-21T05:01:15;8.73;;;3.50;;
16977;SDS011;8605;52.548;4.918;2022-08-21T05:06:42;11.50;;;4.60;;
16977;SDS011;8605;52.548;4.918;2022-08-21T05:12:08;12.50;;;2.80;;
16977;SDS011;8605;52.548;4.918;2022-08-21T05:17:31;10.37;;;4.30;;
16977;SDS011;8605;52.548;4.918;2022-08-21T05:22:55;4.87;;;3.27;;
16977;SDS011;8605;52.548;4.918;2022-08-21T05:28:19;11.20;;;3.47;;
16977;SDS011;8605;52.548;4.918;2022-08-21T05:33:43;5.10;;;3.13;;
16977;SDS011;8605;52.548;4.918;2022-08-21T05:39:06;7.07;;;3.67;;
16977;SDS011;8605;52.548;4.918;2022-08-21T05:44:30;21.73;;;4.03;;
16977;SDS011;8605;52.548;4.918;2022-08-21T05:50:15;8.63;;;3.43;;
16977;SDS011;8605;52.548;4.918;2022-08-21T05:55:39;15.33;;;3.80;;
16977;SDS011;8605;52.548;4.918;2022-08-21T06:01:08;11.00;;;4.97;;
16977;SDS011;8605;52.548;4.918;2022-08-21T06:06:32;12.43;;;3.90;;
16977;SDS011;8605;52.548;4.918;2022-08-21T06:11:55;8.63;;;4.67;;
16977;SDS011;8605;52.548;4.918;2022-08-21T06:17:19;15.77;;;4.63;;
16977;SDS011;8605;52.548;4.918;2022-08-21T06:22:42;13.67;;;3.87;;
16977;SDS011;8605;52.548;4.918;2022-08-21T06:28:06;8.93;;;3.87;;
16977;SDS011;8605;52.548;4.918;2022-08-21T06:33:31;9.27;;;3.97;;
16977;SDS011;8605;52.548;4.918;2022-08-21T06:38:55;13.10;;;4.23;;
16977;SDS011;8605;52.548;4.918;2022-08-21T06:44:23;13.53;;;4.37;;
16977;SDS011;8605;52.548;4.918;2022-08-21T06:49:48;13.20;;;4.43;;
16977;SDS011;8605;52.548;4.918;2022-08-21T06:55:12;7.90;;;4.33;;
16977;SDS011;8605;52.548;4.918;2022-08-21T07:00:43;11.17;;;4.67;;
16977;SDS011;8605;52.548;4.918;2022-08-21T07:06:09;6.88;;;3.63;;
16977;SDS011;8605;52.548;4.918;2022-08-21T07:11:33;13.13;;;3.65;;
16977;SDS011;8605;52.548;4.918;2022-08-21T07:17:08;17.23;;;4.88;;
16977;SDS011;8605;52.548;4.918;2022-08-21T07:22:32;8.88;;;3.83;;
16977;SDS011;8605;52.548;4.918;2022-08-21T07:27:56;19.67;;;4.22;;
16977;SDS011;8605;52.548;4.918;2022-08-21T07:33:19;7.32;;;3.92;;
16977;SDS011;8605;52.548;4.918;2022-08-21T07:38:44;12.32;;;5.00;;
16977;SDS011;8605;52.548;4.918;2022-08-21T07:44:07;12.95;;;4.80;;
16977;SDS011;8605;52.548;4.918;2022-08-21T07:49:33;13.25;;;3.50;;
16977;SDS011;8605;52.548;4.918;2022-08-21T07:54:57;5.50;;;2.90;;
16977;SDS011;8605;52.548;4.918;2022-08-21T08:00:27;10.85;;;3.22;;
16977;SDS011;8605;52.548;4.918;2022-08-21T08:05:52;5.93;;;3.75;;
16977;SDS011;8605;52.548;4.918;2022-08-21T08:11:17;5.28;;;3.42;;
16977;SDS011;8605;52.548;4.918;2022-08-21T08:16:40;13.45;;;4.63;;
16977;SDS011;8605;52.548;4.918;2022-08-21T08:22:12;11.00;;;2.70;;
16977;SDS011;8605;52.548;4.918;2022-08-21T08:27:37;12.75;;;2.85;;
16977;SDS011;8605;52.548;4.918;2022-08-21T08:33:01;9.30;;;2.80;;
16977;SDS011;8605;52.548;4.918;2022-08-21T08:38:24;4.82;;;2.83;;
16977;SDS011;8605;52.548;4.918;2022-08-21T08:43:50;9.65;;;3.72;;
16977;SDS011;8605;52.548;4.918;2022-08-21T08:49:17;8.82;;;3.00;;
16977;SDS011;8605;52.548;4.918;2022-08-21T08:54:43;9.30;;;3.20;;
16977;SDS011;8605;52.548;4.918;2022-08-21T09:05:59;7.20;;;2.38;;
16977;SDS011;8605;52.548;4.918;2022-08-21T09:11:29;3.30;;;1.90;;
16977;SDS011;8605;52.548;4.918;2022-08-21T09:16:56;5.93;;;1.88;;
16977;SDS011;8605;52.548;4.918;2022-08-21T09:22:28;9.02;;;3.05;;
16977;SDS011;8605;52.548;4.918;2022-08-21T09:27:56;5.30;;;1.77;;
16977;SDS011;8605;52.548;4.918;2022-08-21T09:33:20;9.02;;;3.80;;
16977;SDS011;8605;52.548;4.918;2022-08-21T09:38:51;7.00;;;2.78;;
16977;SDS011;8605;52.548;4.918;2022-08-21T09:44:23;11.45;;;2.47;;
16977;SDS011;8605;52.548;4.918;2022-08-21T09:49:50;5.15;;;1.75;;
16977;SDS011;8605;52.548;4.918;2022-08-21T09:55:15;3.67;;;1.60;;
16977;SDS011;8605;52.548;4.918;2022-08-21T10:01:04;2.42;;;1.58;;
16977;SDS011;8605;52.548;4.918;2022-08-21T10:06:29;6.97;;;2.00;;
16977;SDS011;8605;52.548;4.918;2022-08-21T10:11:55;7.03;;;2.47;;
16977;SDS011;8605;52.548;4.918;2022-08-21T10:17:23;3.92;;;1.33;;
16977;SDS011;8605;52.548;4.918;2022-08-21T10:22:53;9.40;;;1.77;;
16977;SDS011;8605;52.548;4.918;2022-08-21T10:28:26;2.92;;;1.08;;
16977;SDS011;8605;52.548;4.918;2022-08-21T10:33:57;3.03;;;1.30;;
16977;SDS011;8605;52.548;4.918;2022-08-21T10:39:33;5.63;;;1.85;;
16977;SDS011;8605;52.548;4.918;2022-08-21T10:45:01;5.38;;;1.25;;
16977;SDS011;8605;52.548;4.918;2022-08-21T10:50:30;5.18;;;1.40;;
16977;SDS011;8605;52.548;4.918;2022-08-21T10:55:59;5.10;;;1.40;;
16977;SDS011;8605;52.548;4.918;2022-08-21T11:01:26;2.25;;;1.20;;
16977;SDS011;8605;52.548;4.918;2022-08-21T11:06:53;3.42;;;1.35;;
16977;SDS011;8605;52.548;4.918;2022-08-21T11:12:28;1.98;;;1.05;;
16977;SDS011;8605;52.548;4.918;2022-08-21T11:18:00;5.03;;;1.20;;
16977;SDS011;8605;52.548;4.918;2022-08-21T11:23:28;3.67;;;1.60;;
16977;SDS011;8605;52.548;4.918;2022-08-21T11:29:00;8.82;;;1.55;;
16977;SDS011;8605;52.548;4.918;2022-08-21T11:34:35;1.95;;;1.10;;
16977;SDS011;8605;52.548;4.918;2022-08-21T11:40:04;8.13;;;1.27;;
16977;SDS011;8605;52.548;4.918;2022-08-21T11:45:35;4.43;;;1.45;;
16977;SDS011;8605;52.548;4.918;2022-08-21T11:51:04;2.50;;;1.83;;
16977;SDS011;8605;52.548;4.918;2022-08-21T11:56:31;8.35;;;1.65;;
16977;SDS011;8605;52.548;4.918;2022-08-21T12:01:57;2.92;;;1.40;;
16977;SDS011;8605;52.548;4.918;2022-08-21T12:07:30;6.05;;;1.35;;
16977;SDS011;8605;52.548;4.918;2022-08-21T12:12:55;3.78;;;1.40;;
16977;SDS011;8605;52.548;4.918;2022-08-21T12:18:31;1.83;;;1.20;;
16977;SDS011;8605;52.548;4.918;2022-08-21T12:23:59;4.10;;;1.45;;
16977;SDS011;8605;52.548;4.918;2022-08-21T12:29:26;3.05;;;1.45;;
16977;SDS011;8605;52.548;4.918;2022-08-21T12:34:52;7.75;;;1.83;;
16977;SDS011;8605;52.548;4.918;2022-08-21T12:40:18;5.43;;;1.23;;
16977;SDS011;8605;52.548;4.918;2022-08-21T12:45:45;2.15;;;1.23;;
16977;SDS011;8605;52.548;4.918;2022-08-21T12:51:12;3.65;;;1.27;;
16977;SDS011;8605;52.548;4.918;2022-08-21T12:56:37;6.53;;;1.42;;
16977;SDS011;8605;52.548;4.918;2022-08-21T13:02:01;10.63;;;1.67;;
16977;SDS011;8605;52.548;4.918;2022-08-21T13:07:29;1.80;;;1.00;;
16977;SDS011;8605;52.548;4.918;2022-08-21T13:12:54;3.03;;;1.83;;
16977;SDS011;8605;52.548;4.918;2022-08-21T13:18:21;5.07;;;1.33;;
16977;SDS011;8605;52.548;4.918;2022-08-21T13:23:46;5.30;;;1.60;;
16977;SDS011;8605;52.548;4.918;2022-08-21T13:29:10;2.83;;;1.52;;
16977;SDS011;8605;52.548;4.918;2022-08-21T13:34:37;6.68;;;1.20;;
16977;SDS011;8605;52.548;4.918;2022-08-21T13:40:02;5.13;;;1.60;;
16977;SDS011;8605;52.548;4.918;2022-08-21T13:45:26;2.92;;;1.00;;
16977;SDS011;8605;52.548;4.918;2022-08-21T13:50:52;4.55;;;1.60;;
16977;SDS011;8605;52.548;4.918;2022-08-21T13:56:25;3.33;;;1.13;;
16977;SDS011;8605;52.548;4.918;2022-08-21T14:02:13;2.15;;;0.95;;
16977;SDS011;8605;52.548;4.918;2022-08-21T14:07:39;1.45;;;1.00;;
16977;SDS011;8605;52.548;4.918;2022-08-21T14:13:05;2.65;;;0.90;;
16977;SDS011;8605;52.548;4.918;2022-08-21T14:18:29;1.75;;;1.13;;
16977;SDS011;8605;52.548;4.918;2022-08-21T14:23:58;1.98;;;1.10;;
16977;SDS011;8605;52.548;4.918;2022-08-21T14:29:26;6.18;;;1.33;;
16977;SDS011;8605;52.548;4.918;2022-08-21T14:34:55;4.47;;;1.60;;
16977;SDS011;8605;52.548;4.918;2022-08-21T14:40:20;4.63;;;1.55;;
16977;SDS011;8605;52.548;4.918;2022-08-21T14:45:46;2.47;;;0.90;;
16977;SDS011;8605;52.548;4.918;2022-08-21T14:51:09;6.00;;;1.45;;
16977;SDS011;8605;52.548;4.918;2022-08-21T14:56:32;2.20;;;1.05;;
16977;SDS011;8605;52.548;4.918;2022-08-21T15:01:57;3.78;;;1.20;;
16977;SDS011;8605;52.548;4.918;2022-08-21T15:07:20;1.50;;;0.93;;
16977;SDS011;8605;52.548;4.918;2022-08-21T15:12:43;2.72;;;0.93;;
16977;SDS011;8605;52.548;4.918;2022-08-21T15:18:08;3.58;;;1.30;;
16977;SDS011;8605;52.548;4.918;2022-08-21T15:23:31;1.80;;;1.00;;
16977;SDS011;8605;52.548;4.918;2022-08-21T15:28:55;3.65;;;1.23;;
16977;SDS011;8605;52.548;4.918;2022-08-21T15:34:20;5.53;;;1.20;;
16977;SDS011;8605;52.548;4.918;2022-08-21T15:39:48;1.92;;;1.20;;
16977;SDS011;8605;52.548;4.918;2022-08-21T15:45:14;3.05;;;1.23;;
16977;SDS011;8605;52.548;4.918;2022-08-21T15:50:39;5.40;;;2.03;;
16977;SDS011;8605;52.548;4.918;2022-08-21T15:56:02;1.42;;;1.23;;
16977;SDS011;8605;52.548;4.918;2022-08-21T16:01:25;2.85;;;1.40;;
16977;SDS011;8605;52.548;4.918;2022-08-21T16:06:57;3.67;;;1.30;;
16977;SDS011;8605;52.548;4.918;2022-08-21T16:12:31;3.05;;;1.05;;
16977;SDS011;8605;52.548;4.918;2022-08-21T16:17:56;4.90;;;1.73;;
16977;SDS011;8605;52.548;4.918;2022-08-21T16:23:21;2.83;;;1.50;;
16977;SDS011;8605;52.548;4.918;2022-08-21T16:28:44;4.63;;;1.52;;
16977;SDS011;8605;52.548;4.918;2022-08-21T16:34:08;2.50;;;1.50;;
16977;SDS011;8605;52.548;4.918;2022-08-21T16:39:37;5.03;;;1.70;;
16977;SDS011;8605;52.548;4.918;2022-08-21T16:45:00;4.82;;;1.67;;
16977;SDS011;8605;52.548;4.918;2022-08-21T16:50:25;6.57;;;1.20;;
16977;SDS011;8605;52.548;4.918;2022-08-21T16:55:50;3.35;;;1.63;;
16977;SDS011;8605;52.548;4.918;2022-08-21T17:01:15;5.07;;;1.83;;
16977;SDS011;8605;52.548;4.918;2022-08-21T17:06:40;3.13;;;1.35;;
16977;SDS011;8605;52.548;4.918;2022-08-21T17:12:06;2.22;;;1.27;;
16977;SDS011;8605;52.548;4.918;2022-08-21T17:17:29;6.57;;;1.23;;
16977;SDS011;8605;52.548;4.918;2022-08-21T17:22:53;5.95;;;1.58;;
16977;SDS011;8605;52.548;4.918;2022-08-21T17:28:19;6.65;;;2.42;;
16977;SDS011;8605;52.548;4.918;2022-08-21T17:33:46;10.75;;;1.75;;
16977;SDS011;8605;52.548;4.918;2022-08-21T17:39:13;8.77;;;3.10;;
16977;SDS011;8605;52.548;4.918;2022-08-21T17:44:48;3.97;;;2.15;;
16977;SDS011;8605;52.548;4.918;2022-08-21T17:50:12;4.72;;;1.50;;
16977;SDS011;8605;52.548;4.918;2022-08-21T17:55:41;8.82;;;2.05;;
16977;SDS011;8605;52.548;4.918;2022-08-21T18:01:06;3.45;;;1.95;;
16977;SDS011;8605;52.548;4.918;2022-08-21T18:06:30;8.93;;;1.88;;
16977;SDS011;8605;52.548;4.918;2022-08-21T18:11:53;5.30;;;1.58;;
16977;SDS011;8605;52.548;4.918;2022-08-21T18:17:19;6.93;;;2.20;;
16977;SDS011;8605;52.548;4.918;2022-08-21T18:22:44;4.38;;;1.75;;
16977;SDS011;8605;52.548;4.918;2022-08-21T18:28:08;9.27;;;1.85;;
16977;SDS011;8605;52.548;4.918;2022-08-21T18:33:32;2.45;;;1.13;;
16977;SDS011;8605;52.548;4.918;2022-08-21T18:38:56;6.95;;;1.92;;
16977;SDS011;8605;52.548;4.918;2022-08-21T18:44:40;5.93;;;2.40;;
16977;SDS011;8605;52.548;4.918;2022-08-21T18:50:08;3.72;;;2.35;;
16977;SDS011;8605;52.548;4.918;2022-08-21T18:55:32;4.25;;;1.77;;
16977;SDS011;8605;52.548;4.918;2022-08-21T19:01:00;3.30;;;1.35;;
16977;SDS011;8605;52.548;4.918;2022-08-21T19:06:25;5.13;;;2.42;;
16977;SDS011;8605;52.548;4.918;2022-08-21T19:11:48;9.38;;;2.63;;
16977;SDS011;8605;52.548;4.918;2022-08-21T19:17:12;4.50;;;2.22;;
16977;SDS011;8605;52.548;4.918;2022-08-21T19:22:37;6.00;;;1.80;;
16977;SDS011;8605;52.548;4.918;2022-08-21T19:28:01;3.80;;;2.58;;
16977;SDS011;8605;52.548;4.918;2022-08-21T19:33:34;7.07;;;3.08;;
16977;SDS011;8605;52.548;4.918;2022-08-21T19:39:01;5.22;;;1.92;;
16977;SDS011;8605;52.548;4.918;2022-08-21T19:44:29;2.75;;;1.70;;
16977;SDS011;8605;52.548;4.918;2022-08-21T19:49:56;5.07;;;2.22;;
16977;SDS011;8605;52.548;4.918;2022-08-21T19:55:25;5.55;;;2.72;;
16977;SDS011;8605;52.548;4.918;2022-08-21T20:00:49;7.22;;;2.25;;
16977;SDS011;8605;52.548;4.918;2022-08-21T20:06:12;5.03;;;1.83;;
16977;SDS011;8605;52.548;4.918;2022-08-21T20:11:41;6.82;;;2.53;;
16977;SDS011;8605;52.548;4.918;2022-08-21T20:17:05;8.40;;;2.35;;
16977;SDS011;8605;52.548;4.918;2022-08-21T20:22:31;6.60;;;3.17;;
16977;SDS011;8605;52.548;4.918;2022-08-21T20:27:55;8.23;;;2.35;;
16977;SDS011;8605;52.548;4.918;2022-08-21T20:33:19;7.93;;;3.40;;
16977;SDS011;8605;52.548;4.918;2022-08-21T20:38:44;7.28;;;2.95;;
16977;SDS011;8605;52.548;4.918;2022-08-21T20:44:11;6.45;;;3.35;;
16977;SDS011;8605;52.548;4.918;2022-08-21T20:49:40;5.32;;;3.10;;
16977;SDS011;8605;52.548;4.918;2022-08-21T20:55:08;8.55;;;2.88;;
16977;SDS011;8605;52.548;4.918;2022-08-21T21:00:36;4.78;;;2.38;;
16977;SDS011;8605;52.548;4.918;2022-08-21T21:06:02;7.75;;;2.60;;
16977;SDS011;8605;52.548;4.918;2022-08-21T21:11:30;7.50;;;3.33;;
16977;SDS011;8605;52.548;4.918;2022-08-21T21:17:01;7.05;;;2.88;;
16977;SDS011;8605;52.548;4.918;2022-08-21T21:22:26;9.48;;;3.30;;
16977;SDS011;8605;52.548;4.918;2022-08-21T21:27:53;4.55;;;2.38;;
16977;SDS011;8605;52.548;4.918;2022-08-21T21:33:20;7.45;;;3.03;;
16977;SDS011;8605;52.548;4.918;2022-08-21T21:38:45;9.38;;;4.25;;
16977;SDS011;8605;52.548;4.918;2022-08-21T21:50:18;3.85;;;2.00;;
16977;SDS011;8605;52.548;4.918;2022-08-21T21:55:58;5.75;;;2.10;;
16977;SDS011;8605;52.548;4.918;2022-08-21T22:01:30;5.22;;;1.77;;
16977;SDS011;8605;52.548;4.918;2022-08-21T22:07:03;3.47;;;1.85;;
16977;SDS011;8605;52.548;4.918;2022-08-21T22:12:33;7.57;;;4.85;;
16977;SDS011;8605;52.548;4.918;2022-08-21T22:18:10;6.40;;;3.00;;
16977;SDS011;8605;52.548;4.918;2022-08-21T22:23:39;4.88;;;2.00;;
16977;SDS011;8605;52.548;4.918;2022-08-21T22:29:03;7.68;;;2.10;;
16977;SDS011;8605;52.548;4.918;2022-08-21T22:34:32;4.07;;;2.05;;
16977;SDS011;8605;52.548;4.918;2022-08-21T22:39:56;5.32;;;2.63;;
16977;SDS011;8605;52.548;4.918;2022-08-21T22:45:20;8.13;;;2.85;;
16977;SDS011;8605;52.548;4.918;2022-08-21T22:50:44;7.18;;;3.15;;
16977;SDS011;8605;52.548;4.918;2022-08-21T22:56:09;12.48;;;3.90;;
16977;SDS011;8605;52.548;4.918;2022-08-21T23:01:52;7.95;;;2.50;;
16977;SDS011;8605;52.548;4.918;2022-08-21T23:13:23;16.17;;;5.10;;
16977;SDS011;8605;52.548;4.918;2022-08-21T23:18:59;7.80;;;3.13;;
16977;SDS011;8605;52.548;4.918;2022-08-21T23:30:25;6.75;;;2.78;;
16977;SDS011;8605;52.548;4.918;2022-08-21T23:36:01;6.68;;;3.20;;
16977;SDS011;8605;52.548;4.918;2022-08-21T23:41:46;17.83;;;3.30;;
16977;SDS011;8605;52.548;4.918;2022-08-21T23:47:18;5.85;;;2.53;;
16977;SDS011;8605;52.548;4.918;2022-08-21T23:52:58;9.23;;;2.80;;
16977;SDS011;8605;52.548;4.918;2022-08-21T23:58:32;5.43;;;2.53;;
